sensor_id;sensor_type;location;lat;lon;timestamp;P1;durP1;ratioP1;P2;durP2;ratioP2
26062;SDS011;13837;48.562;12.108;2023-03-04T00:02:05;73.88;;;48.35;;
26062;SDS011;13837;48.562;12.108;2023-03-04T00:04:34;69.03;;;45.70;;
26062;SDS011;13837;48.562;12.108;2023-03-04T00:07:00;77.82;;;46.58;;
26062;SDS011;13837;48.562;12.108;2023-03-04T00:09:26;71.55;;;45.47;;
26062;SDS011;13837;48.562;12.108;2023-03-04T00:11:52;73.90;;;47.63;;
26062;SDS011;13837;48.562;12.108;2023-03-04T00:14:21;59.75;;;46.45;;
26062;SDS011;13837;48.562;12.108;2023-03-04T00:16:48;71.20;;;46.03;;
26062;SDS011;13837;48.562;12.108;2023-03-04T00:19:14;78.00;;;47.95;;
26062;SDS011;13837;48.562;12.108;2023-03-04T00:21:43;72.38;;;47.72;;
26062;SDS011;13837;48.562;12.108;2023-03-04T00:24:09;71.22;;;47.20;;
26062;SDS011;13837;48.562;12.108;2023-03-04T00:26:35;69.78;;;45.92;;
26062;SDS011;13837;48.562;12.108;2023-03-04T00:29:01;72.05;;;46.13;;
26062;SDS011;13837;48.562;12.108;2023-03-04T00:31:27;72.60;;;47.70;;
26062;SDS011;13837;48.562;12.108;2023-03-04T00:33:53;88.15;;;54.30;;
26062;SDS011;13837;48.562;12.108;2023-03-04T00:36:19;81.43;;;53.35;;
26062;SDS011;13837;48.562;12.108;2023-03-04T00:38:45;84.45;;;55.63;;
26062;SDS011;13837;48.562;12.108;2023-03-04T00:41:11;76.47;;;51.70;;
26062;SDS011;13837;48.562;12.108;2023-03-04T00:43:40;73.35;;;46.20;;
26062;SDS011;13837;48.562;12.108;2023-03-04T00:46:06;68.82;;;44.72;;
26062;SDS011;13837;48.562;12.108;2023-03-04T00:48:32;78.22;;;52.30;;
26062;SDS011;13837;48.562;12.108;2023-03-04T00:50:58;67.05;;;43.08;;
26062;SDS011;13837;48.562;12.108;2023-03-04T00:53:24;67.88;;;45.85;;
26062;SDS011;13837;48.562;12.108;2023-03-04T00:55:50;69.63;;;43.75;;
26062;SDS011;13837;48.562;12.108;2023-03-04T00:58:16;75.32;;;48.35;;
26062;SDS011;13837;48.562;12.108;2023-03-04T01:00:42;78.63;;;49.47;;
26062;SDS011;13837;48.562;12.108;2023-03-04T01:03:11;76.25;;;49.80;;
26062;SDS011;13837;48.562;12.108;2023-03-04T01:05:38;69.47;;;44.90;;
26062;SDS011;13837;48.562;12.108;2023-03-04T01:08:04;84.75;;;54.17;;
26062;SDS011;13837;48.562;12.108;2023-03-04T01:10:30;79.40;;;51.97;;
26062;SDS011;13837;48.562;12.108;2023-03-04T01:12:57;79.05;;;53.00;;
26062;SDS011;13837;48.562;12.108;2023-03-04T01:15:25;76.88;;;52.15;;
26062;SDS011;13837;48.562;12.108;2023-03-04T01:17:53;75.78;;;49.10;;
26062;SDS011;13837;48.562;12.108;2023-03-04T01:20:23;81.50;;;49.03;;
26062;SDS011;13837;48.562;12.108;2023-03-04T01:22:49;73.82;;;49.08;;
26062;SDS011;13837;48.562;12.108;2023-03-04T01:25:15;79.60;;;53.58;;
26062;SDS011;13837;48.562;12.108;2023-03-04T01:27:41;77.70;;;51.20;;
26062;SDS011;13837;48.562;12.108;2023-03-04T01:30:08;69.15;;;47.08;;
26062;SDS011;13837;48.562;12.108;2023-03-04T01:32:34;71.53;;;51.17;;
26062;SDS011;13837;48.562;12.108;2023-03-04T01:35:00;67.70;;;48.63;;
26062;SDS011;13837;48.562;12.108;2023-03-04T01:37:28;69.82;;;46.03;;
26062;SDS011;13837;48.562;12.108;2023-03-04T01:39:54;65.53;;;45.28;;
26062;SDS011;13837;48.562;12.108;2023-03-04T01:42:20;72.85;;;45.47;;
26062;SDS011;13837;48.562;12.108;2023-03-04T01:44:47;71.65;;;45.40;;
26062;SDS011;13837;48.562;12.108;2023-03-04T01:47:14;67.03;;;44.70;;
26062;SDS011;13837;48.562;12.108;2023-03-04T01:49:40;68.50;;;45.15;;
26062;SDS011;13837;48.562;12.108;2023-03-04T01:52:09;67.22;;;44.47;;
26062;SDS011;13837;48.562;12.108;2023-03-04T01:54:35;73.68;;;46.15;;
26062;SDS011;13837;48.562;12.108;2023-03-04T01:57:05;70.82;;;44.92;;
26062;SDS011;13837;48.562;12.108;2023-03-04T01:59:32;63.50;;;43.65;;
26062;SDS011;13837;48.562;12.108;2023-03-04T02:01:58;69.75;;;44.67;;
26062;SDS011;13837;48.562;12.108;2023-03-04T02:04:26;72.72;;;43.65;;
26062;SDS011;13837;48.562;12.108;2023-03-04T02:06:52;65.40;;;43.42;;
26062;SDS011;13837;48.562;12.108;2023-03-04T02:09:19;63.08;;;44.22;;
26062;SDS011;13837;48.562;12.108;2023-03-04T02:11:46;61.85;;;44.13;;
26062;SDS011;13837;48.562;12.108;2023-03-04T02:14:16;68.90;;;43.58;;
26062;SDS011;13837;48.562;12.108;2023-03-04T02:16:42;66.35;;;44.70;;
26062;SDS011;13837;48.562;12.108;2023-03-04T02:19:12;63.63;;;42.85;;
26062;SDS011;13837;48.562;12.108;2023-03-04T02:21:41;71.05;;;44.88;;
26062;SDS011;13837;48.562;12.108;2023-03-04T02:26:52;66.43;;;43.20;;
26062;SDS011;13837;48.562;12.108;2023-03-04T02:29:18;63.45;;;43.20;;
26062;SDS011;13837;48.562;12.108;2023-03-04T02:31:45;68.43;;;43.40;;
26062;SDS011;13837;48.562;12.108;2023-03-04T02:34:16;61.67;;;40.72;;
26062;SDS011;13837;48.562;12.108;2023-03-04T02:36:43;71.25;;;43.28;;
26062;SDS011;13837;48.562;12.108;2023-03-04T02:41:49;59.67;;;42.22;;
26062;SDS011;13837;48.562;12.108;2023-03-04T02:44:16;60.58;;;40.78;;
26062;SDS011;13837;48.562;12.108;2023-03-04T02:46:43;63.67;;;41.00;;
26062;SDS011;13837;48.562;12.108;2023-03-04T02:49:09;61.63;;;42.38;;
26062;SDS011;13837;48.562;12.108;2023-03-04T02:51:35;64.55;;;43.50;;
26062;SDS011;13837;48.562;12.108;2023-03-04T02:54:01;65.82;;;43.88;;
26062;SDS011;13837;48.562;12.108;2023-03-04T02:56:27;64.18;;;41.67;;
26062;SDS011;13837;48.562;12.108;2023-03-04T02:58:53;66.55;;;42.42;;
26062;SDS011;13837;48.562;12.108;2023-03-04T03:01:19;64.57;;;42.33;;
26062;SDS011;13837;48.562;12.108;2023-03-04T03:03:46;66.82;;;42.25;;
26062;SDS011;13837;48.562;12.108;2023-03-04T03:06:12;59.22;;;39.47;;
26062;SDS011;13837;48.562;12.108;2023-03-04T03:08:38;59.60;;;40.83;;
26062;SDS011;13837;48.562;12.108;2023-03-04T03:11:04;58.33;;;40.47;;
26062;SDS011;13837;48.562;12.108;2023-03-04T03:13:32;64.25;;;40.60;;
26062;SDS011;13837;48.562;12.108;2023-03-04T03:15:58;61.70;;;41.38;;
26062;SDS011;13837;48.562;12.108;2023-03-04T03:18:24;60.00;;;40.40;;
26062;SDS011;13837;48.562;12.108;2023-03-04T03:20:50;62.08;;;40.63;;
26062;SDS011;13837;48.562;12.108;2023-03-04T03:23:17;64.03;;;40.42;;
26062;SDS011;13837;48.562;12.108;2023-03-04T03:25:45;57.58;;;40.33;;
26062;SDS011;13837;48.562;12.108;2023-03-04T03:28:11;63.47;;;41.53;;
26062;SDS011;13837;48.562;12.108;2023-03-04T03:30:37;62.35;;;40.95;;
26062;SDS011;13837;48.562;12.108;2023-03-04T03:33:04;62.92;;;40.97;;
26062;SDS011;13837;48.562;12.108;2023-03-04T03:35:31;58.97;;;41.65;;
26062;SDS011;13837;48.562;12.108;2023-03-04T03:37:57;64.35;;;41.38;;
26062;SDS011;13837;48.562;12.108;2023-03-04T03:40:23;60.70;;;40.95;;
26062;SDS011;13837;48.562;12.108;2023-03-04T03:42:49;61.30;;;41.13;;
26062;SDS011;13837;48.562;12.108;2023-03-04T03:45:15;60.22;;;40.97;;
26062;SDS011;13837;48.562;12.108;2023-03-04T03:47:41;58.00;;;39.65;;
26062;SDS011;13837;48.562;12.108;2023-03-04T03:50:07;60.55;;;41.08;;
26062;SDS011;13837;48.562;12.108;2023-03-04T03:52:33;62.47;;;40.92;;
26062;SDS011;13837;48.562;12.108;2023-03-04T03:54:59;60.55;;;40.97;;
26062;SDS011;13837;48.562;12.108;2023-03-04T03:57:26;64.32;;;42.53;;
26062;SDS011;13837;48.562;12.108;2023-03-04T03:59:52;60.63;;;41.63;;
26062;SDS011;13837;48.562;12.108;2023-03-04T04:02:18;59.78;;;40.83;;
26062;SDS011;13837;48.562;12.108;2023-03-04T04:04:44;60.08;;;40.67;;
26062;SDS011;13837;48.562;12.108;2023-03-04T04:07:10;62.40;;;40.92;;
26062;SDS011;13837;48.562;12.108;2023-03-04T04:09:36;55.78;;;40.38;;
26062;SDS011;13837;48.562;12.108;2023-03-04T04:12:03;59.88;;;38.67;;
26062;SDS011;13837;48.562;12.108;2023-03-04T04:14:29;62.08;;;39.90;;
26062;SDS011;13837;48.562;12.108;2023-03-04T04:16:55;58.88;;;39.88;;
26062;SDS011;13837;48.562;12.108;2023-03-04T04:19:21;59.85;;;40.35;;
26062;SDS011;13837;48.562;12.108;2023-03-04T04:21:47;59.53;;;40.42;;
26062;SDS011;13837;48.562;12.108;2023-03-04T04:24:14;63.10;;;41.42;;
26062;SDS011;13837;48.562;12.108;2023-03-04T04:26:40;60.97;;;41.20;;
26062;SDS011;13837;48.562;12.108;2023-03-04T04:29:06;58.20;;;40.75;;
26062;SDS011;13837;48.562;12.108;2023-03-04T04:31:33;58.40;;;41.42;;
26062;SDS011;13837;48.562;12.108;2023-03-04T04:33:59;60.20;;;39.80;;
26062;SDS011;13837;48.562;12.108;2023-03-04T04:36:25;63.90;;;39.53;;
26062;SDS011;13837;48.562;12.108;2023-03-04T04:38:51;54.83;;;39.75;;
26062;SDS011;13837;48.562;12.108;2023-03-04T04:41:19;54.78;;;40.58;;
26062;SDS011;13837;48.562;12.108;2023-03-04T04:43:45;51.65;;;38.90;;
26062;SDS011;13837;48.562;12.108;2023-03-04T04:46:11;59.55;;;41.22;;
26062;SDS011;13837;48.562;12.108;2023-03-04T04:48:37;61.13;;;39.78;;
26062;SDS011;13837;48.562;12.108;2023-03-04T04:51:03;58.05;;;39.33;;
26062;SDS011;13837;48.562;12.108;2023-03-04T04:53:30;55.35;;;39.20;;
26062;SDS011;13837;48.562;12.108;2023-03-04T04:55:56;57.13;;;39.78;;
26062;SDS011;13837;48.562;12.108;2023-03-04T04:58:22;57.08;;;40.25;;
26062;SDS011;13837;48.562;12.108;2023-03-04T05:00:48;52.92;;;38.97;;
26062;SDS011;13837;48.562;12.108;2023-03-04T05:03:14;57.20;;;39.40;;
26062;SDS011;13837;48.562;12.108;2023-03-04T05:05:40;56.92;;;39.08;;
26062;SDS011;13837;48.562;12.108;2023-03-04T05:08:06;56.47;;;40.22;;
26062;SDS011;13837;48.562;12.108;2023-03-04T05:10:33;59.03;;;40.72;;
26062;SDS011;13837;48.562;12.108;2023-03-04T05:12:59;57.53;;;41.78;;
26062;SDS011;13837;48.562;12.108;2023-03-04T05:15:25;55.05;;;39.53;;
26062;SDS011;13837;48.562;12.108;2023-03-04T05:17:51;61.10;;;40.17;;
26062;SDS011;13837;48.562;12.108;2023-03-04T05:20:26;59.42;;;39.53;;
26062;SDS011;13837;48.562;12.108;2023-03-04T05:22:52;64.13;;;41.80;;
26062;SDS011;13837;48.562;12.108;2023-03-04T05:25:18;55.67;;;38.85;;
26062;SDS011;13837;48.562;12.108;2023-03-04T05:27:44;59.67;;;41.00;;
26062;SDS011;13837;48.562;12.108;2023-03-04T05:30:10;56.58;;;40.42;;
26062;SDS011;13837;48.562;12.108;2023-03-04T05:32:37;81.32;;;45.90;;
26062;SDS011;13837;48.562;12.108;2023-03-04T05:35:03;66.63;;;44.00;;
26062;SDS011;13837;48.562;12.108;2023-03-04T05:37:29;70.28;;;42.83;;
26062;SDS011;13837;48.562;12.108;2023-03-04T05:39:55;65.53;;;42.03;;
26062;SDS011;13837;48.562;12.108;2023-03-04T05:42:21;71.03;;;43.22;;
26062;SDS011;13837;48.562;12.108;2023-03-04T05:44:47;65.90;;;42.92;;
26062;SDS011;13837;48.562;12.108;2023-03-04T05:47:13;60.80;;;40.83;;
26062;SDS011;13837;48.562;12.108;2023-03-04T05:49:39;56.42;;;41.03;;
26062;SDS011;13837;48.562;12.108;2023-03-04T05:52:05;55.50;;;41.40;;
26062;SDS011;13837;48.562;12.108;2023-03-04T05:54:32;57.70;;;39.75;;
26062;SDS011;13837;48.562;12.108;2023-03-04T05:56:58;55.47;;;41.10;;
26062;SDS011;13837;48.562;12.108;2023-03-04T05:59:24;61.42;;;42.30;;
26062;SDS011;13837;48.562;12.108;2023-03-04T06:01:50;58.47;;;41.58;;
26062;SDS011;13837;48.562;12.108;2023-03-04T06:04:16;60.07;;;42.13;;
26062;SDS011;13837;48.562;12.108;2023-03-04T06:06:42;51.88;;;38.70;;
26062;SDS011;13837;48.562;12.108;2023-03-04T06:09:10;54.72;;;40.25;;
26062;SDS011;13837;48.562;12.108;2023-03-04T06:11:36;56.88;;;39.90;;
26062;SDS011;13837;48.562;12.108;2023-03-04T06:14:03;57.58;;;41.35;;
26062;SDS011;13837;48.562;12.108;2023-03-04T06:16:29;55.35;;;40.85;;
26062;SDS011;13837;48.562;12.108;2023-03-04T06:18:55;61.20;;;41.13;;
26062;SDS011;13837;48.562;12.108;2023-03-04T06:21:21;53.88;;;39.60;;
26062;SDS011;13837;48.562;12.108;2023-03-04T06:23:47;55.67;;;38.90;;
26062;SDS011;13837;48.562;12.108;2023-03-04T06:26:17;52.25;;;38.40;;
26062;SDS011;13837;48.562;12.108;2023-03-04T06:28:43;52.47;;;36.80;;
26062;SDS011;13837;48.562;12.108;2023-03-04T06:31:09;52.65;;;36.28;;
26062;SDS011;13837;48.562;12.108;2023-03-04T06:33:35;47.42;;;34.22;;
26062;SDS011;13837;48.562;12.108;2023-03-04T06:36:01;49.00;;;34.17;;
26062;SDS011;13837;48.562;12.108;2023-03-04T06:38:28;45.72;;;32.45;;
26062;SDS011;13837;48.562;12.108;2023-03-04T06:40:54;38.80;;;30.52;;
26062;SDS011;13837;48.562;12.108;2023-03-04T06:43:20;43.85;;;31.77;;
26062;SDS011;13837;48.562;12.108;2023-03-04T06:45:46;47.28;;;32.20;;
26062;SDS011;13837;48.562;12.108;2023-03-04T06:48:12;44.70;;;31.77;;
26062;SDS011;13837;48.562;12.108;2023-03-04T06:50:38;44.75;;;31.60;;
26062;SDS011;13837;48.562;12.108;2023-03-04T06:53:05;47.50;;;33.42;;
26062;SDS011;13837;48.562;12.108;2023-03-04T06:55:31;44.38;;;33.40;;
26062;SDS011;13837;48.562;12.108;2023-03-04T06:57:57;45.45;;;33.25;;
26062;SDS011;13837;48.562;12.108;2023-03-04T07:00:23;48.80;;;33.85;;
26062;SDS011;13837;48.562;12.108;2023-03-04T07:02:49;50.90;;;34.60;;
26062;SDS011;13837;48.562;12.108;2023-03-04T07:05:15;50.00;;;35.40;;
26062;SDS011;13837;48.562;12.108;2023-03-04T07:07:41;55.28;;;37.63;;
26062;SDS011;13837;48.562;12.108;2023-03-04T07:10:08;53.42;;;36.08;;
26062;SDS011;13837;48.562;12.108;2023-03-04T07:12:34;54.92;;;36.42;;
26062;SDS011;13837;48.562;12.108;2023-03-04T07:15:01;55.83;;;37.03;;
26062;SDS011;13837;48.562;12.108;2023-03-04T07:17:27;52.08;;;35.65;;
26062;SDS011;13837;48.562;12.108;2023-03-04T07:19:53;50.33;;;35.13;;
26062;SDS011;13837;48.562;12.108;2023-03-04T07:22:19;45.83;;;33.85;;
26062;SDS011;13837;48.562;12.108;2023-03-04T07:24:45;55.92;;;37.42;;
26062;SDS011;13837;48.562;12.108;2023-03-04T07:27:11;50.22;;;36.03;;
26062;SDS011;13837;48.562;12.108;2023-03-04T07:29:37;51.42;;;34.25;;
26062;SDS011;13837;48.562;12.108;2023-03-04T07:32:07;49.58;;;35.17;;
26062;SDS011;13837;48.562;12.108;2023-03-04T07:36:59;46.90;;;33.53;;
26062;SDS011;13837;48.562;12.108;2023-03-04T07:39:25;45.28;;;32.97;;
26062;SDS011;13837;48.562;12.108;2023-03-04T07:41:51;46.17;;;32.80;;
26062;SDS011;13837;48.562;12.108;2023-03-04T07:44:17;45.97;;;33.95;;
26062;SDS011;13837;48.562;12.108;2023-03-04T07:46:43;48.40;;;32.80;;
26062;SDS011;13837;48.562;12.108;2023-03-04T07:49:13;45.28;;;32.78;;
26062;SDS011;13837;48.562;12.108;2023-03-04T07:54:05;47.35;;;31.90;;
26062;SDS011;13837;48.562;12.108;2023-03-04T07:59:00;41.83;;;31.08;;
26062;SDS011;13837;48.562;12.108;2023-03-04T08:01:29;42.20;;;29.92;;
26062;SDS011;13837;48.562;12.108;2023-03-04T08:03:55;39.17;;;29.95;;
26062;SDS011;13837;48.562;12.108;2023-03-04T08:06:22;44.72;;;31.73;;
26062;SDS011;13837;48.562;12.108;2023-03-04T08:08:48;40.90;;;31.02;;
26062;SDS011;13837;48.562;12.108;2023-03-04T08:11:16;43.65;;;30.17;;
26062;SDS011;13837;48.562;12.108;2023-03-04T08:13:42;42.92;;;30.35;;
26062;SDS011;13837;48.562;12.108;2023-03-04T08:16:10;37.80;;;29.08;;
26062;SDS011;13837;48.562;12.108;2023-03-04T08:18:36;39.33;;;29.88;;
26062;SDS011;13837;48.562;12.108;2023-03-04T08:21:07;39.13;;;30.00;;
26062;SDS011;13837;48.562;12.108;2023-03-04T08:23:36;41.90;;;28.60;;
26062;SDS011;13837;48.562;12.108;2023-03-04T08:26:07;38.55;;;28.05;;
26062;SDS011;13837;48.562;12.108;2023-03-04T08:28:33;37.60;;;25.77;;
26062;SDS011;13837;48.562;12.108;2023-03-04T08:30:59;36.92;;;28.42;;
26062;SDS011;13837;48.562;12.108;2023-03-04T08:33:25;38.05;;;27.50;;
26062;SDS011;13837;48.562;12.108;2023-03-04T08:35:51;41.10;;;27.13;;
26062;SDS011;13837;48.562;12.108;2023-03-04T08:38:17;37.80;;;26.88;;
26062;SDS011;13837;48.562;12.108;2023-03-04T08:40:43;37.58;;;27.38;;
26062;SDS011;13837;48.562;12.108;2023-03-04T08:43:09;36.97;;;26.77;;
26062;SDS011;13837;48.562;12.108;2023-03-04T08:45:35;34.28;;;25.85;;
26062;SDS011;13837;48.562;12.108;2023-03-04T08:48:01;36.92;;;25.92;;
26062;SDS011;13837;48.562;12.108;2023-03-04T08:50:27;34.85;;;26.65;;
26062;SDS011;13837;48.562;12.108;2023-03-04T08:52:53;32.65;;;25.90;;
26062;SDS011;13837;48.562;12.108;2023-03-04T08:55:19;35.88;;;25.80;;
26062;SDS011;13837;48.562;12.108;2023-03-04T08:57:45;33.15;;;25.23;;
26062;SDS011;13837;48.562;12.108;2023-03-04T09:00:12;31.83;;;24.92;;
26062;SDS011;13837;48.562;12.108;2023-03-04T09:02:38;28.27;;;23.70;;
26062;SDS011;13837;48.562;12.108;2023-03-04T09:05:04;32.55;;;24.95;;
26062;SDS011;13837;48.562;12.108;2023-03-04T09:07:30;33.15;;;24.33;;
26062;SDS011;13837;48.562;12.108;2023-03-04T09:09:57;29.73;;;24.55;;
26062;SDS011;13837;48.562;12.108;2023-03-04T09:12:23;27.63;;;22.88;;
26062;SDS011;13837;48.562;12.108;2023-03-04T09:14:49;28.92;;;23.23;;
26062;SDS011;13837;48.562;12.108;2023-03-04T09:17:15;31.48;;;23.30;;
26062;SDS011;13837;48.562;12.108;2023-03-04T09:19:41;28.80;;;23.15;;
26062;SDS011;13837;48.562;12.108;2023-03-04T09:22:07;26.42;;;22.50;;
26062;SDS011;13837;48.562;12.108;2023-03-04T09:24:33;29.08;;;22.65;;
26062;SDS011;13837;48.562;12.108;2023-03-04T09:26:59;27.60;;;21.58;;
26062;SDS011;13837;48.562;12.108;2023-03-04T09:29:25;28.30;;;22.88;;
26062;SDS011;13837;48.562;12.108;2023-03-04T09:31:58;26.88;;;22.33;;
26062;SDS011;13837;48.562;12.108;2023-03-04T09:34:24;26.92;;;22.38;;
26062;SDS011;13837;48.562;12.108;2023-03-04T09:36:50;26.17;;;21.70;;
26062;SDS011;13837;48.562;12.108;2023-03-04T09:39:16;27.13;;;21.67;;
26062;SDS011;13837;48.562;12.108;2023-03-04T09:41:43;28.27;;;21.88;;
26062;SDS011;13837;48.562;12.108;2023-03-04T09:44:53;25.45;;;21.23;;
26062;SDS011;13837;48.562;12.108;2023-03-04T09:47:02;29.13;;;22.40;;
26062;SDS011;13837;48.562;12.108;2023-03-04T09:49:28;26.13;;;22.30;;
26062;SDS011;13837;48.562;12.108;2023-03-04T10:05:20;30.50;;;22.90;;
26062;SDS011;13837;48.562;12.108;2023-03-04T10:07:57;27.67;;;22.92;;
26062;SDS011;13837;48.562;12.108;2023-03-04T10:12:53;27.70;;;22.75;;
26062;SDS011;13837;48.562;12.108;2023-03-04T10:17:55;26.55;;;22.38;;
26062;SDS011;13837;48.562;12.108;2023-03-04T10:20:30;26.17;;;21.40;;
26062;SDS011;13837;48.562;12.108;2023-03-04T10:22:58;26.60;;;20.90;;
26062;SDS011;13837;48.562;12.108;2023-03-04T10:28:00;24.25;;;20.90;;
26062;SDS011;13837;48.562;12.108;2023-03-04T10:33:08;27.15;;;20.98;;
26062;SDS011;13837;48.562;12.108;2023-03-04T10:35:35;25.60;;;21.63;;
26062;SDS011;13837;48.562;12.108;2023-03-04T10:38:02;27.45;;;22.15;;
26062;SDS011;13837;48.562;12.108;2023-03-04T10:40:28;28.90;;;22.55;;
26062;SDS011;13837;48.562;12.108;2023-03-04T10:43:01;26.00;;;21.48;;
26062;SDS011;13837;48.562;12.108;2023-03-04T10:45:32;32.95;;;23.92;;
26062;SDS011;13837;48.562;12.108;2023-03-04T10:48:03;27.13;;;21.05;;
26062;SDS011;13837;48.562;12.108;2023-03-04T10:50:29;26.77;;;22.10;;
26062;SDS011;13837;48.562;12.108;2023-03-04T10:52:56;24.17;;;20.55;;
26062;SDS011;13837;48.562;12.108;2023-03-04T10:58:02;25.45;;;20.13;;
26062;SDS011;13837;48.562;12.108;2023-03-04T11:03:23;24.30;;;20.75;;
26062;SDS011;13837;48.562;12.108;2023-03-04T11:05:50;24.52;;;20.08;;
26062;SDS011;13837;48.562;12.108;2023-03-04T11:08:21;23.90;;;20.90;;
26062;SDS011;13837;48.562;12.108;2023-03-04T11:13:52;23.65;;;19.92;;
26062;SDS011;13837;48.562;12.108;2023-03-04T11:16:24;25.35;;;20.75;;
26062;SDS011;13837;48.562;12.108;2023-03-04T11:18:51;28.63;;;25.98;;
26062;SDS011;13837;48.562;12.108;2023-03-04T11:21:21;25.90;;;22.10;;
26062;SDS011;13837;48.562;12.108;2023-03-04T11:26:30;27.30;;;22.33;;
26062;SDS011;13837;48.562;12.108;2023-03-04T11:31:49;29.23;;;22.30;;
26062;SDS011;13837;48.562;12.108;2023-03-04T11:41:57;24.52;;;20.88;;
26062;SDS011;13837;48.562;12.108;2023-03-04T11:44:25;28.23;;;21.93;;
26062;SDS011;13837;48.562;12.108;2023-03-04T11:57:29;28.67;;;23.50;;
26062;SDS011;13837;48.562;12.108;2023-03-04T12:00:33;32.03;;;24.35;;
26062;SDS011;13837;48.562;12.108;2023-03-04T12:03:03;28.50;;;22.63;;
26062;SDS011;13837;48.562;12.108;2023-03-04T12:16:15;31.50;;;24.38;;
26062;SDS011;13837;48.562;12.108;2023-03-04T12:26:50;26.30;;;21.15;;
26062;SDS011;13837;48.562;12.108;2023-03-04T12:31:44;26.85;;;20.70;;
26062;SDS011;13837;48.562;12.108;2023-03-04T12:37:03;25.00;;;22.13;;
26062;SDS011;13837;48.562;12.108;2023-03-04T12:39:34;25.55;;;22.02;;
26062;SDS011;13837;48.562;12.108;2023-03-04T12:42:13;27.73;;;20.75;;
26062;SDS011;13837;48.562;12.108;2023-03-04T12:44:47;27.20;;;21.00;;
26062;SDS011;13837;48.562;12.108;2023-03-04T12:52:24;22.98;;;19.98;;
26062;SDS011;13837;48.562;12.108;2023-03-04T12:54:57;26.25;;;21.27;;
26062;SDS011;13837;48.562;12.108;2023-03-04T12:57:25;26.20;;;20.55;;
26062;SDS011;13837;48.562;12.108;2023-03-04T13:02:50;27.60;;;22.20;;
26062;SDS011;13837;48.562;12.108;2023-03-04T13:10:17;28.55;;;21.38;;
26062;SDS011;13837;48.562;12.108;2023-03-04T13:12:50;29.58;;;21.98;;
26062;SDS011;13837;48.562;12.108;2023-03-04T13:23:26;29.95;;;21.73;;
26062;SDS011;13837;48.562;12.108;2023-03-04T13:56:28;31.40;;;23.75;;
26062;SDS011;13837;48.562;12.108;2023-03-04T14:04:55;30.15;;;23.15;;
26062;SDS011;13837;48.562;12.108;2023-03-04T14:09:25;30.50;;;23.17;;
26062;SDS011;13837;48.562;12.108;2023-03-04T14:11:53;31.50;;;23.00;;
26062;SDS011;13837;48.562;12.108;2023-03-04T14:14:40;32.83;;;23.98;;
26062;SDS011;13837;48.562;12.108;2023-03-04T14:17:08;33.55;;;23.63;;
26062;SDS011;13837;48.562;12.108;2023-03-04T14:19:43;33.85;;;23.13;;
26062;SDS011;13837;48.562;12.108;2023-03-04T14:24:56;28.15;;;23.13;;
26062;SDS011;13837;48.562;12.108;2023-03-04T14:27:22;31.67;;;24.42;;
26062;SDS011;13837;48.562;12.108;2023-03-04T14:30:02;32.67;;;25.83;;
26062;SDS011;13837;48.562;12.108;2023-03-04T14:32:28;30.25;;;23.70;;
26062;SDS011;13837;48.562;12.108;2023-03-04T14:34:57;28.48;;;23.48;;
26062;SDS011;13837;48.562;12.108;2023-03-04T14:37:25;30.43;;;22.73;;
26062;SDS011;13837;48.562;12.108;2023-03-04T14:39:53;44.33;;;39.33;;
26062;SDS011;13837;48.562;12.108;2023-03-04T14:42:20;29.05;;;23.35;;
26062;SDS011;13837;48.562;12.108;2023-03-04T14:44:48;28.88;;;23.48;;
26062;SDS011;13837;48.562;12.108;2023-03-04T14:49:41;30.50;;;23.75;;
26062;SDS011;13837;48.562;12.108;2023-03-04T14:52:41;31.88;;;24.80;;
26062;SDS011;13837;48.562;12.108;2023-03-04T14:57:42;32.45;;;25.58;;
26062;SDS011;13837;48.562;12.108;2023-03-04T15:02:48;32.53;;;25.83;;
26062;SDS011;13837;48.562;12.108;2023-03-04T15:07:54;31.35;;;24.23;;
26062;SDS011;13837;48.562;12.108;2023-03-04T15:10:35;28.25;;;24.40;;
26062;SDS011;13837;48.562;12.108;2023-03-04T15:13:02;34.92;;;25.63;;
26062;SDS011;13837;48.562;12.108;2023-03-04T15:15:31;28.27;;;25.08;;
26062;SDS011;13837;48.562;12.108;2023-03-04T15:17:58;31.88;;;26.52;;
26062;SDS011;13837;48.562;12.108;2023-03-04T15:20:25;32.28;;;25.17;;
26062;SDS011;13837;48.562;12.108;2023-03-04T15:22:59;30.45;;;24.50;;
26062;SDS011;13837;48.562;12.108;2023-03-04T15:25:25;35.63;;;25.42;;
26062;SDS011;13837;48.562;12.108;2023-03-04T15:27:52;30.48;;;24.38;;
26062;SDS011;13837;48.562;12.108;2023-03-04T15:30:22;30.73;;;24.55;;
26062;SDS011;13837;48.562;12.108;2023-03-04T15:32:49;30.63;;;25.17;;
26062;SDS011;13837;48.562;12.108;2023-03-04T15:35:16;32.78;;;26.23;;
26062;SDS011;13837;48.562;12.108;2023-03-04T15:37:43;32.88;;;24.27;;
26062;SDS011;13837;48.562;12.108;2023-03-04T15:40:23;29.02;;;24.77;;
26062;SDS011;13837;48.562;12.108;2023-03-04T15:42:49;32.15;;;24.73;;
26062;SDS011;13837;48.562;12.108;2023-03-04T15:45:35;33.95;;;26.05;;
26062;SDS011;13837;48.562;12.108;2023-03-04T15:48:06;34.00;;;26.90;;
26062;SDS011;13837;48.562;12.108;2023-03-04T15:50:32;34.13;;;25.67;;
26062;SDS011;13837;48.562;12.108;2023-03-04T15:53:00;33.05;;;25.67;;
26062;SDS011;13837;48.562;12.108;2023-03-04T15:55:26;35.13;;;26.95;;
26062;SDS011;13837;48.562;12.108;2023-03-04T15:57:54;31.52;;;26.15;;
26062;SDS011;13837;48.562;12.108;2023-03-04T16:00:21;33.20;;;25.85;;
26062;SDS011;13837;48.562;12.108;2023-03-04T16:02:47;35.90;;;26.05;;
26062;SDS011;13837;48.562;12.108;2023-03-04T16:05:14;35.78;;;26.92;;
26062;SDS011;13837;48.562;12.108;2023-03-04T16:07:41;32.85;;;24.90;;
26062;SDS011;13837;48.562;12.108;2023-03-04T16:12:48;32.70;;;26.20;;
26062;SDS011;13837;48.562;12.108;2023-03-04T16:15:18;36.22;;;26.63;;
26062;SDS011;13837;48.562;12.108;2023-03-04T16:17:45;36.45;;;27.00;;
26062;SDS011;13837;48.562;12.108;2023-03-04T16:20:11;30.30;;;25.75;;
26062;SDS011;13837;48.562;12.108;2023-03-04T16:22:38;31.17;;;25.77;;
26062;SDS011;13837;48.562;12.108;2023-03-04T16:25:04;29.00;;;25.25;;
26062;SDS011;13837;48.562;12.108;2023-03-04T16:27:30;37.58;;;27.60;;
26062;SDS011;13837;48.562;12.108;2023-03-04T16:29:57;35.50;;;27.40;;
26062;SDS011;13837;48.562;12.108;2023-03-04T16:32:23;33.13;;;26.55;;
26062;SDS011;13837;48.562;12.108;2023-03-04T16:34:49;35.75;;;27.33;;
26062;SDS011;13837;48.562;12.108;2023-03-04T16:37:16;35.25;;;27.65;;
26062;SDS011;13837;48.562;12.108;2023-03-04T16:39:43;35.00;;;27.85;;
26062;SDS011;13837;48.562;12.108;2023-03-04T16:42:17;32.35;;;27.00;;
26062;SDS011;13837;48.562;12.108;2023-03-04T16:44:46;36.00;;;28.70;;
26062;SDS011;13837;48.562;12.108;2023-03-04T16:47:12;35.08;;;27.77;;
26062;SDS011;13837;48.562;12.108;2023-03-04T16:49:38;37.90;;;30.10;;
26062;SDS011;13837;48.562;12.108;2023-03-04T16:52:05;38.70;;;28.33;;
26062;SDS011;13837;48.562;12.108;2023-03-04T16:54:32;35.67;;;29.60;;
26062;SDS011;13837;48.562;12.108;2023-03-04T16:56:59;40.45;;;30.27;;
26062;SDS011;13837;48.562;12.108;2023-03-04T16:59:25;37.08;;;30.15;;